BGCO2: Big Cabin Creek, Big Cabin, OK

Data processed at Sat Aug 19 2017 21:51


All information presented herein is the property of the government of the United States of America and may be revised or deleted at any time without prior notice.
Dissemination of this information without the expressed written consent of the Public Affairs Office, Tulsa District U.S. Army Corps of Engineers is strictly prohibited.
These data are gathered electronically and, as presented, have not undergone any form of quality control. These data are not guaranteed to be valid or correct.
Go to home page.
Go to station list.

Downstream station:


Previous Day
Next Day
Current Day
    
SHEF ID:       BGCO2     Big Cabin Creek near Big Cabin,
STATION TYPE:  

               PRECIP     STAGE  STAGE(2)  RIV-FLOW  BAT-LOAD
                   in        ft        ft       cfs      volt
              Ccp-Rev   Ccp-Rev   Ccp-Rev   Ccp-Rev   Ccp-Rev
(US/Central)
08/19 00:00      0.00     13.40     13.43       132     12.65
08/19 01:00      0.00     13.38     13.40       128     12.57
08/19 02:00      0.00     13.35     13.36       123     12.57
08/19 03:00      0.00     13.32     13.35       117     12.57
08/19 04:00      0.00     13.30     13.33       114     12.57
08/19 05:00      0.00     13.27     13.29       109     12.57
08/19 06:00      0.00     13.25     13.27       106     12.57
08/19 07:00      0.00     13.23     13.25       102     12.57
08/19 08:00      0.00     13.20     13.22        98     12.57
08/19 09:00      0.00     13.18     13.19        95     12.81
08/19 10:00      0.00     13.16     13.17        92     13.29
08/19 11:00      0.00     13.14     13.15        89     13.37
08/19 12:00      0.00     13.13     13.11        87     13.37
08/19 13:00      0.00     13.11     13.09        84     13.37
08/19 14:00      0.00     13.08     13.07        80     13.53
08/19 15:00      0.00     13.07     13.05        79     12.97
08/19 16:00      0.00     13.05     13.04        76     12.89
08/19 17:00      0.00     13.05     13.02        76     12.81
08/19 18:00      0.00     13.03     13.01        74     12.65
08/19 19:00      0.00     13.02     13.00        72     12.73
08/19 20:00      0.00     13.00     13.00        70     12.65
08/19 21:00      ----      ----      ----      ----      ----
08/19 22:00      ----      ----      ----      ----      ----
08/19 23:00      ----      ----      ----      ----      ----